University City, Missouri
Current Conditions -  °F | °C
As of 9:51 AM on Tuesday 21 Oct 2014 (Local Time) from KSTL Reporting Station
Clear Clear  
Wind Chill: 57°   Ceiling: Unl
Heat Index: 57°   Visibility: 10mi
Dew Point: 47°   Wind: 6mph
Humidity: 69%   Direction: 40°NE
Pressure: 30.14"   Gusts: NA
Location:  38.66°N, 90.31°W
Report Text: KSTL 211451Z 04005KT 10SM CLR 14/08 A3014 RMK AO2 SLP203 T01390083 52017
Loading
Personal Weather Stations






























Interactive Weather Map
Tropical Storm Tracking
New forecast layout! Learn more

10-Day Weather Forecast

Advertisements
Track Severe Weather on mobile